createdAt,value
2019-03-24T00:00:37.934Z,17.07
2019-03-24T00:03:07.673Z,16.50
2019-03-24T00:05:36.403Z,16.77
2019-03-24T00:08:05.132Z,16.17
2019-03-24T00:10:34.573Z,15.03
2019-03-24T00:13:03.242Z,15.73
2019-03-24T00:15:32.361Z,16.03
2019-03-24T00:18:00.992Z,15.57
2019-03-24T00:20:29.931Z,15.40
2019-03-24T00:22:58.610Z,16.30
2019-03-24T00:25:29.247Z,16.43
2019-03-24T00:27:58.294Z,16.67
2019-03-24T00:30:27.029Z,17.17
2019-03-24T00:32:55.745Z,16.80
2019-03-24T00:35:24.310Z,18.47
2019-03-24T00:37:53.000Z,17.53
2019-03-24T00:40:22.582Z,18.33
2019-03-24T00:42:51.392Z,17.90
2019-03-24T00:45:20.237Z,19.13
2019-03-24T00:47:49.576Z,19.60
2019-03-24T00:50:18.304Z,18.03
2019-03-24T00:52:46.981Z,18.20
2019-03-24T00:55:15.693Z,17.57
2019-03-24T00:57:44.351Z,17.67
2019-03-24T01:00:13.974Z,18.90
2019-03-24T01:02:45.440Z,18.80
2019-03-24T01:05:14.650Z,18.00
2019-03-24T01:07:43.382Z,17.57
2019-03-24T01:10:12.804Z,19.53
2019-03-24T01:12:41.438Z,17.13
2019-03-24T01:15:10.243Z,17.17
2019-03-24T01:17:39.051Z,15.90
2019-03-24T01:20:08.169Z,16.87
2019-03-24T01:22:37.118Z,16.13
2019-03-24T01:25:06.025Z,15.93
2019-03-24T01:27:34.770Z,15.83
2019-03-24T01:30:04.818Z,15.50
2019-03-24T01:32:33.468Z,15.90
2019-03-24T01:35:02.478Z,14.53
2019-03-24T01:37:31.164Z,13.80
2019-03-24T01:39:59.886Z,13.47
2019-03-24T01:42:28.516Z,13.90
2019-03-24T01:44:57.185Z,13.53
2019-03-24T01:47:25.902Z,12.40
2019-03-24T01:49:54.540Z,13.17
2019-03-24T01:52:23.282Z,12.87
2019-03-24T01:54:51.994Z,12.53
2019-03-24T01:57:21.107Z,12.60
2019-03-24T01:59:50.110Z,11.77
2019-03-24T02:02:18.895Z,12.87
2019-03-24T02:04:47.739Z,11.00
2019-03-24T02:07:16.486Z,11.50
2019-03-24T02:09:45.204Z,10.67
2019-03-24T02:12:13.924Z,11.27
2019-03-24T02:14:42.582Z,9.53
2019-03-24T02:17:11.227Z,9.63
2019-03-24T02:19:39.864Z,9.60
2019-03-24T02:22:20.668Z,10.13
2019-03-24T02:24:49.367Z,9.20
2019-03-24T02:27:17.942Z,7.87
2019-03-24T02:29:47.441Z,7.10
2019-03-24T02:32:16.158Z,6.73
2019-03-24T02:34:44.792Z,7.80
2019-03-24T02:37:13.608Z,6.10
2019-03-24T02:39:42.268Z,6.40
2019-03-24T02:42:10.892Z,5.97
2019-03-24T02:44:40.492Z,6.40
2019-03-24T02:47:09.138Z,5.50
2019-03-24T02:49:38.455Z,5.97
2019-03-24T02:52:07.127Z,6.50
2019-03-24T02:54:35.773Z,5.90
2019-03-24T02:57:06.511Z,5.17
2019-03-24T02:59:37.731Z,5.40
2019-03-24T03:02:09.232Z,4.77
2019-03-24T03:04:38.111Z,4.97
2019-03-24T03:07:06.850Z,5.03
2019-03-24T03:09:35.595Z,5.17
2019-03-24T03:12:04.795Z,5.83
2019-03-24T03:14:33.728Z,6.27
2019-03-24T03:17:04.802Z,4.50
2019-03-24T03:19:33.520Z,4.47
2019-03-24T03:22:02.195Z,4.80
2019-03-24T03:24:30.849Z,4.77
2019-03-24T03:26:59.906Z,4.90
2019-03-24T03:29:29.904Z,4.53
2019-03-24T03:31:58.666Z,4.90
2019-03-24T03:34:27.385Z,4.20
2019-03-24T03:36:56.160Z,4.10
2019-03-24T03:39:24.782Z,5.13
2019-03-24T03:41:53.485Z,4.93
2019-03-24T03:44:22.384Z,5.53
2019-03-24T03:46:53.305Z,4.23
2019-03-24T03:49:22.027Z,4.00
2019-03-24T03:51:50.697Z,4.70
2019-03-24T03:54:21.429Z,4.77
2019-03-24T03:56:56.131Z,4.97
2019-03-24T03:59:25.801Z,5.13
2019-03-24T04:01:54.425Z,4.53
2019-03-24T04:04:23.164Z,4.83
2019-03-24T04:06:51.795Z,4.67
2019-03-24T04:09:20.455Z,4.97
2019-03-24T04:11:52.184Z,5.03
2019-03-24T04:14:20.767Z,5.53
2019-03-24T04:16:49.326Z,4.83
2019-03-24T04:19:18.711Z,4.40
2019-03-24T04:21:47.278Z,6.00
2019-03-24T04:24:16.178Z,5.27
2019-03-24T04:26:46.492Z,5.30
2019-03-24T04:29:15.063Z,5.67
2019-03-24T04:31:44.666Z,5.17
2019-03-24T04:34:13.392Z,5.70
2019-03-24T04:36:42.338Z,4.40
2019-03-24T04:39:10.983Z,5.20
2019-03-24T04:41:39.705Z,5.47
2019-03-24T04:44:08.349Z,5.57
2019-03-24T04:46:36.919Z,4.93
2019-03-24T04:49:05.668Z,5.03
2019-03-24T04:51:34.380Z,5.83
2019-03-24T04:54:04.655Z,4.70
2019-03-24T04:56:33.338Z,5.00
2019-03-24T04:59:01.978Z,5.00
2019-03-24T05:01:30.683Z,5.63
2019-03-24T05:03:59.456Z,5.70
2019-03-24T05:06:28.327Z,5.10
2019-03-24T05:08:57.034Z,5.40
2019-03-24T05:11:25.711Z,5.53
2019-03-24T05:13:54.423Z,5.00
2019-03-24T05:16:23.054Z,4.80
2019-03-24T05:18:51.728Z,5.67
2019-03-24T05:21:20.432Z,4.93
2019-03-24T05:23:49.072Z,5.33
2019-03-24T05:26:17.738Z,5.00
2019-03-24T05:28:46.381Z,4.23
2019-03-24T05:31:15.054Z,4.90
2019-03-24T05:33:43.790Z,4.67
2019-03-24T05:36:12.515Z,5.03
2019-03-24T05:38:41.392Z,5.60
2019-03-24T05:41:11.899Z,5.30
2019-03-24T05:43:40.285Z,5.13
2019-03-24T05:46:08.927Z,5.63
2019-03-24T05:48:38.394Z,5.27
2019-03-24T05:51:07.251Z,4.97
2019-03-24T05:53:36.004Z,4.77
2019-03-24T05:56:04.745Z,5.73
2019-03-24T05:58:33.385Z,5.67
2019-03-24T06:01:02.038Z,5.13
2019-03-24T06:03:30.642Z,5.40
2019-03-24T06:05:59.200Z,5.73
2019-03-24T06:08:27.840Z,5.83
2019-03-24T06:10:58.831Z,5.77
2019-03-24T06:13:27.473Z,6.90
2019-03-24T06:15:56.039Z,5.60
2019-03-24T06:18:24.633Z,5.73
2019-03-24T06:20:53.348Z,5.90
2019-03-24T06:23:21.922Z,5.60
2019-03-24T06:25:50.669Z,6.07
2019-03-24T06:28:19.309Z,5.57
2019-03-24T06:30:48.314Z,5.40
2019-03-24T06:33:17.076Z,5.73
2019-03-24T06:35:45.778Z,5.90
2019-03-24T06:38:14.420Z,5.67
2019-03-24T06:40:43.163Z,6.47
2019-03-24T06:43:11.868Z,5.63
2019-03-24T06:45:40.587Z,6.03
2019-03-24T06:48:09.253Z,6.43
2019-03-24T06:50:37.903Z,6.33
2019-03-24T06:53:06.662Z,6.00
2019-03-24T06:55:35.401Z,5.63
2019-03-24T06:58:06.839Z,6.00
2019-03-24T07:00:35.553Z,6.53
2019-03-24T07:03:04.403Z,7.73
2019-03-24T07:05:33.194Z,5.97
2019-03-24T07:08:02.261Z,6.40
2019-03-24T07:10:33.311Z,6.20
2019-03-24T07:13:01.973Z,5.80
2019-03-24T07:15:30.644Z,6.43
2019-03-24T07:18:08.171Z,6.20
2019-03-24T07:20:29.921Z,6.17
2019-03-24T07:22:58.631Z,5.43
2019-03-24T07:25:27.299Z,6.17
2019-03-24T07:28:00.003Z,6.07
2019-03-24T07:30:26.204Z,7.07
2019-03-24T07:32:56.819Z,6.80
2019-03-24T07:35:25.411Z,6.30
2019-03-24T07:37:54.111Z,7.67
2019-03-24T07:40:23.019Z,6.20
2019-03-24T07:42:51.671Z,6.17
2019-03-24T07:45:20.387Z,6.73
2019-03-24T07:47:50.482Z,6.53
2019-03-24T07:50:19.145Z,6.37
2019-03-24T07:52:50.144Z,6.17
2019-03-24T07:55:18.874Z,6.90
2019-03-24T07:57:50.362Z,5.63
2019-03-24T08:00:33.663Z,6.10
2019-03-24T08:03:02.374Z,5.83
2019-03-24T08:05:31.251Z,6.50
2019-03-24T08:08:00.012Z,6.57
2019-03-24T08:10:28.715Z,6.13
2019-03-24T08:12:57.443Z,6.27
2019-03-24T08:15:26.303Z,5.80
2019-03-24T08:17:55.012Z,6.07
2019-03-24T08:20:23.845Z,6.53
2019-03-24T08:22:52.863Z,6.47
2019-03-24T08:25:21.568Z,6.07
2019-03-24T08:27:53.650Z,6.30
2019-03-24T08:30:31.570Z,6.40
2019-03-24T08:33:00.232Z,5.80
2019-03-24T08:35:30.718Z,6.87
2019-03-24T08:38:02.122Z,6.47
2019-03-24T08:40:31.304Z,6.57
2019-03-24T08:43:00.018Z,6.93
2019-03-24T08:45:29.977Z,7.07
2019-03-24T08:48:02.257Z,6.20
2019-03-24T08:50:31.277Z,6.20
2019-03-24T08:53:00.858Z,6.57
2019-03-24T08:55:32.097Z,6.50
2019-03-24T08:58:01.758Z,6.67
2019-03-24T09:00:31.175Z,6.83
2019-03-24T09:03:04.421Z,6.43
2019-03-24T09:05:33.758Z,6.67
2019-03-24T09:08:02.712Z,6.67
2019-03-24T09:10:38.906Z,6.23
2019-03-24T09:13:07.659Z,6.70
2019-03-24T09:15:45.322Z,6.87
2019-03-24T09:18:14.375Z,7.47
2019-03-24T09:20:43.928Z,7.53
2019-03-24T09:23:12.566Z,6.83
2019-03-24T09:25:42.938Z,7.50
2019-03-24T09:28:14.834Z,7.00
2019-03-24T09:30:46.365Z,7.50
2019-03-24T09:33:17.740Z,7.30
2019-03-24T09:35:46.382Z,8.73
2019-03-24T09:38:15.598Z,7.77
2019-03-24T09:40:44.327Z,7.13
2019-03-24T09:43:13.265Z,7.73
2019-03-24T09:45:41.962Z,8.13
2019-03-24T09:48:13.792Z,7.43
2019-03-24T09:50:44.607Z,7.60
2019-03-24T09:53:13.239Z,7.60
2019-03-24T09:55:41.927Z,8.40
2019-03-24T09:58:10.599Z,8.77
2019-03-24T10:00:39.373Z,8.80
2019-03-24T10:03:08.494Z,8.27
2019-03-24T10:05:37.298Z,8.53
2019-03-24T10:08:07.941Z,8.13
2019-03-24T10:10:38.602Z,8.67
2019-03-24T10:13:07.309Z,8.97
2019-03-24T10:15:40.110Z,8.93
2019-03-24T10:18:10.339Z,9.00
2019-03-24T10:20:38.971Z,8.37
2019-03-24T10:23:09.701Z,8.57
2019-03-24T10:25:38.395Z,8.87
2019-03-24T10:28:07.038Z,8.23
2019-03-24T10:30:35.981Z,8.57
2019-03-24T10:33:07.351Z,9.67
2019-03-24T10:35:36.083Z,8.70
2019-03-24T10:38:05.261Z,9.33
2019-03-24T10:40:35.404Z,10.27
2019-03-24T10:43:06.204Z,10.27
2019-03-24T10:45:35.980Z,10.03
2019-03-24T10:48:05.297Z,10.65
2019-03-24T10:50:34.314Z,10.80
2019-03-24T10:53:03.135Z,9.97
2019-03-24T10:55:33.295Z,10.05
2019-03-24T10:58:02.252Z,10.13
2019-03-24T11:00:39.795Z,9.60
2019-03-24T11:03:08.508Z,9.13
2019-03-24T11:05:39.621Z,9.33
2019-03-24T11:08:10.021Z,9.65
2019-03-24T11:10:39.810Z,9.67
2019-03-24T11:13:08.526Z,9.48
2019-03-24T11:15:37.286Z,10.03
2019-03-24T11:18:06.280Z,8.67
2019-03-24T11:20:36.503Z,8.25
2019-03-24T11:23:05.342Z,8.18
2019-03-24T11:25:39.958Z,8.27
2019-03-24T11:28:08.675Z,7.27
2019-03-24T11:30:37.519Z,6.50
2019-03-24T11:33:06.335Z,5.47
2019-03-24T11:35:35.247Z,5.45
2019-03-24T11:38:04.002Z,5.65
2019-03-24T11:40:32.715Z,4.30
2019-03-24T11:43:01.431Z,3.97
2019-03-24T11:45:30.183Z,3.70
2019-03-24T11:47:58.896Z,4.53
2019-03-24T11:50:27.903Z,5.47
2019-03-24T11:52:57.828Z,4.53
2019-03-24T11:55:26.926Z,4.70
2019-03-24T11:58:05.270Z,4.97
2019-03-24T12:00:33.427Z,4.83
2019-03-24T12:03:02.658Z,5.80
2019-03-24T12:05:31.312Z,4.97
2019-03-24T12:08:04.896Z,5.37
2019-03-24T12:10:33.602Z,6.05
2019-03-24T12:13:02.322Z,5.35
2019-03-24T12:15:31.169Z,5.85
2019-03-24T12:18:00.247Z,5.28
2019-03-24T12:20:29.224Z,5.50
2019-03-24T12:23:01.194Z,5.17
2019-03-24T12:25:29.850Z,6.22
2019-03-24T12:28:01.282Z,5.60
2019-03-24T12:30:30.324Z,6.25
2019-03-24T12:32:59.356Z,6.47
2019-03-24T12:35:28.076Z,6.72
2019-03-24T12:37:58.300Z,7.10
2019-03-24T12:40:29.735Z,6.47
2019-03-24T12:42:58.515Z,6.50
2019-03-24T12:45:27.266Z,6.37
2019-03-24T12:47:57.820Z,6.60
2019-03-24T12:50:31.389Z,6.37
2019-03-24T12:52:58.826Z,6.33
2019-03-24T12:55:29.709Z,7.00
2019-03-24T12:58:01.255Z,7.03
2019-03-24T13:00:35.602Z,7.12
2019-03-24T13:03:09.683Z,6.33
2019-03-24T13:05:44.503Z,5.83
2019-03-24T13:08:15.863Z,4.95
2019-03-24T13:10:55.131Z,5.62
2019-03-24T13:13:26.541Z,6.17
2019-03-24T13:15:59.159Z,5.15
2019-03-24T13:18:28.116Z,4.35
2019-03-24T13:20:57.310Z,4.90
2019-03-24T13:23:27.669Z,4.47
2019-03-24T13:25:56.403Z,4.75
2019-03-24T13:28:31.296Z,5.12
2019-03-24T13:31:03.931Z,4.92
2019-03-24T13:33:40.964Z,5.03
2019-03-24T13:36:20.502Z,4.70
2019-03-24T13:38:50.391Z,4.85
2019-03-24T13:41:20.723Z,5.35
2019-03-24T13:43:53.684Z,4.80
2019-03-24T13:46:32.858Z,4.65
2019-03-24T13:49:01.680Z,4.85
2019-03-24T13:51:30.397Z,5.42
2019-03-24T13:54:02.528Z,4.78
2019-03-24T13:56:43.789Z,4.37
2019-03-24T13:59:14.005Z,4.62
2019-03-24T14:01:46.409Z,4.55
2019-03-24T14:04:23.827Z,4.08
2019-03-24T14:06:54.767Z,4.10
2019-03-24T14:09:26.491Z,3.72
2019-03-24T14:11:58.136Z,3.83
2019-03-24T14:14:27.547Z,3.55
2019-03-24T14:16:56.671Z,4.15
2019-03-24T14:19:25.372Z,4.20
2019-03-24T14:21:55.557Z,4.37
2019-03-24T14:24:26.977Z,3.95
2019-03-24T14:26:55.671Z,4.08
2019-03-24T14:29:27.208Z,3.85
2019-03-24T14:32:00.767Z,3.60
2019-03-24T14:34:31.577Z,3.95
2019-03-24T14:37:00.368Z,3.70
2019-03-24T14:39:31.887Z,3.95
2019-03-24T14:42:01.129Z,4.00
2019-03-24T14:44:30.319Z,3.80
2019-03-24T14:47:00.432Z,4.20
2019-03-24T14:49:29.233Z,3.90
2019-03-24T14:51:58.296Z,3.55
2019-03-24T14:54:26.931Z,3.80
2019-03-24T14:56:55.931Z,4.67
2019-03-24T14:59:25.246Z,3.77
2019-03-24T15:01:55.642Z,3.83
2019-03-24T15:04:24.404Z,4.62
2019-03-24T15:06:54.758Z,3.77
2019-03-24T15:09:24.703Z,4.00
2019-03-24T15:11:58.424Z,4.67
2019-03-24T15:14:27.148Z,3.97
2019-03-24T15:16:58.335Z,4.00
2019-03-24T15:19:30.775Z,4.03
2019-03-24T15:22:11.302Z,3.85
2019-03-24T15:24:44.987Z,4.23
2019-03-24T15:27:16.231Z,4.08
2019-03-24T15:29:44.874Z,4.03
2019-03-24T15:32:13.635Z,4.03
2019-03-24T15:34:42.441Z,3.93
2019-03-24T15:37:12.629Z,4.13
2019-03-24T15:39:41.432Z,4.30
2019-03-24T15:42:12.838Z,4.83
2019-03-24T15:44:41.743Z,4.40
2019-03-24T15:47:12.073Z,4.47
2019-03-24T15:49:40.639Z,4.77
2019-03-24T15:52:11.556Z,3.83
2019-03-24T15:54:44.846Z,3.87
2019-03-24T15:57:14.170Z,4.03
2019-03-24T15:59:50.340Z,3.43
2019-03-24T16:02:18.364Z,4.07
2019-03-24T16:04:50.500Z,3.80
2019-03-24T16:07:21.532Z,3.80
2019-03-24T16:09:50.261Z,3.50
2019-03-24T16:12:24.702Z,3.25
2019-03-24T16:14:53.469Z,3.30
2019-03-24T16:17:25.427Z,3.20
2019-03-24T16:20:04.682Z,3.90
2019-03-24T16:22:34.715Z,3.93
2019-03-24T16:25:07.717Z,3.63
2019-03-24T16:27:36.671Z,3.50
2019-03-24T16:30:08.090Z,3.50
2019-03-24T16:32:39.359Z,4.17
2019-03-24T16:35:15.434Z,4.73
2019-03-24T16:37:45.878Z,3.90
2019-03-24T16:40:14.784Z,4.00
2019-03-24T16:42:46.319Z,4.20
2019-03-24T16:45:17.894Z,3.57
2019-03-24T16:47:46.608Z,3.97
2019-03-24T16:50:20.701Z,3.87
2019-03-24T16:52:54.041Z,4.30
2019-03-24T16:55:24.386Z,4.00
2019-03-24T16:57:55.984Z,3.70
2019-03-24T17:00:24.868Z,3.87
2019-03-24T17:02:55.214Z,4.13
2019-03-24T17:05:24.326Z,3.93
2019-03-24T17:07:53.042Z,3.83
2019-03-24T17:10:21.716Z,3.33
2019-03-24T17:12:52.865Z,4.10
2019-03-24T17:15:24.620Z,3.33
2019-03-24T17:17:55.882Z,3.73
2019-03-24T17:20:24.596Z,3.57
2019-03-24T17:22:53.524Z,3.80
2019-03-24T17:25:25.916Z,3.90
2019-03-24T17:27:56.414Z,3.67
2019-03-24T17:30:27.250Z,3.07
2019-03-24T17:32:56.557Z,3.40
2019-03-24T17:35:33.580Z,4.07
2019-03-24T17:38:08.624Z,3.97
2019-03-24T17:40:39.062Z,3.73
2019-03-24T17:43:13.864Z,3.70
2019-03-24T17:45:42.788Z,3.73
2019-03-24T17:48:13.253Z,3.40
2019-03-24T17:50:45.250Z,3.60
2019-03-24T17:53:14.116Z,3.80
2019-03-24T17:55:49.663Z,3.50
2019-03-24T17:58:21.382Z,3.60
2019-03-24T18:00:53.284Z,3.70
2019-03-24T18:03:24.977Z,3.40
2019-03-24T18:06:10.686Z,3.30
2019-03-24T18:08:41.980Z,4.10
2019-03-24T18:11:10.900Z,2.87
2019-03-24T18:13:39.730Z,3.37
2019-03-24T18:16:08.753Z,3.10
2019-03-24T18:18:37.679Z,3.20
2019-03-24T18:21:13.757Z,3.33
2019-03-24T18:23:44.539Z,3.53
2019-03-24T18:26:16.846Z,3.30
2019-03-24T18:28:45.825Z,3.73
2019-03-24T18:31:15.544Z,4.93
2019-03-24T18:33:44.306Z,7.17
2019-03-24T18:36:17.204Z,6.00
2019-03-24T18:38:46.145Z,4.30
2019-03-24T18:41:20.186Z,5.07
2019-03-24T18:43:51.869Z,11.47
2019-03-24T18:46:25.745Z,12.43
2019-03-24T18:48:57.764Z,9.27
2019-03-24T18:51:26.481Z,6.33
2019-03-24T18:54:20.641Z,4.57
2019-03-24T18:56:49.391Z,4.17
2019-03-24T18:59:18.288Z,4.90
2019-03-24T19:01:47.315Z,5.37
2019-03-24T19:04:17.797Z,4.00
2019-03-24T19:06:46.710Z,3.57
2019-03-24T19:09:17.489Z,3.60
2019-03-24T19:11:51.732Z,4.40
2019-03-24T19:14:22.219Z,3.70
2019-03-24T19:16:51.145Z,3.60
2019-03-24T19:19:19.974Z,4.90
2019-03-24T19:21:50.674Z,5.33
2019-03-24T19:24:19.551Z,9.10
2019-03-24T19:26:48.375Z,7.40
2019-03-24T19:29:21.480Z,12.10
2019-03-24T19:31:53.595Z,4.13
2019-03-24T19:34:24.996Z,3.40
2019-03-24T19:36:54.245Z,3.30
2019-03-24T19:39:32.497Z,3.27
2019-03-24T19:42:04.201Z,3.00
2019-03-24T19:44:33.502Z,3.80
2019-03-24T19:47:07.010Z,3.10
2019-03-24T19:49:35.952Z,3.03
2019-03-24T19:52:04.762Z,3.30
2019-03-24T19:54:36.444Z,2.90
2019-03-24T19:57:05.150Z,4.87
2019-03-24T19:59:33.858Z,2.77
2019-03-24T20:02:05.688Z,2.77
2019-03-24T20:04:34.390Z,2.67
2019-03-24T20:07:05.706Z,2.70
2019-03-24T20:09:34.654Z,3.00
2019-03-24T20:12:03.294Z,3.20
2019-03-24T20:14:32.270Z,2.87
2019-03-24T20:17:01.047Z,3.00
2019-03-24T20:19:29.880Z,3.23
2019-03-24T20:22:00.435Z,3.33
2019-03-24T20:24:30.574Z,3.03
2019-03-24T20:27:02.408Z,2.70
2019-03-24T20:29:32.695Z,3.00
2019-03-24T20:32:03.721Z,3.00
2019-03-24T20:34:32.353Z,3.10
2019-03-24T20:37:01.224Z,2.77
2019-03-24T20:39:31.847Z,3.20
2019-03-24T20:42:10.626Z,2.67
2019-03-24T20:44:44.591Z,3.10
2019-03-24T20:47:13.422Z,2.70
2019-03-24T20:49:42.127Z,2.90
2019-03-24T20:52:10.866Z,2.73
2019-03-24T20:54:42.073Z,2.57
2019-03-24T20:57:13.212Z,2.80
2019-03-24T20:59:41.898Z,3.00
2019-03-24T21:02:10.587Z,2.70
2019-03-24T21:04:39.141Z,3.17
2019-03-24T21:07:08.522Z,3.07
2019-03-24T21:09:37.179Z,3.57
2019-03-24T21:12:05.899Z,2.97
2019-03-24T21:14:34.861Z,3.00
2019-03-24T21:17:03.825Z,3.43
2019-03-24T21:19:34.755Z,3.20
2019-03-24T21:22:26.185Z,2.90
2019-03-24T21:24:58.013Z,3.37
2019-03-24T21:27:28.407Z,3.30
2019-03-24T21:29:58.993Z,2.70
2019-03-24T21:32:28.583Z,3.50
2019-03-24T21:34:57.252Z,3.30
2019-03-24T21:37:26.911Z,3.50
2019-03-24T21:39:59.982Z,3.13
2019-03-24T21:42:28.472Z,3.13
2019-03-24T21:44:58.190Z,3.50
2019-03-24T21:47:27.904Z,3.30
2019-03-24T21:49:56.628Z,3.10
2019-03-24T21:52:27.621Z,3.23
2019-03-24T21:54:59.308Z,3.53
2019-03-24T21:57:28.390Z,3.83
2019-03-24T22:00:00.336Z,3.00
2019-03-24T22:02:29.210Z,2.70
2019-03-24T22:04:59.752Z,3.53
2019-03-24T22:07:28.404Z,2.87
2019-03-24T22:09:57.403Z,2.60
2019-03-24T22:12:27.110Z,2.90
2019-03-24T22:14:55.672Z,2.80
2019-03-24T22:17:25.429Z,2.13
2019-03-24T22:20:00.113Z,2.77
2019-03-24T22:22:30.516Z,3.00
2019-03-24T22:25:02.394Z,3.00
2019-03-24T22:27:31.066Z,2.03
2019-03-24T22:29:59.990Z,3.23
2019-03-24T22:32:28.626Z,2.70
2019-03-24T22:35:04.673Z,3.90
2019-03-24T22:37:33.317Z,3.40
2019-03-24T22:40:02.553Z,2.83
2019-03-24T22:42:31.263Z,2.50
2019-03-24T22:45:00.072Z,2.67
2019-03-24T22:47:30.150Z,3.03
2019-03-24T22:49:59.971Z,2.97
2019-03-24T22:52:28.530Z,2.40
2019-03-24T22:54:58.843Z,2.80
2019-03-24T22:57:27.698Z,2.57
2019-03-24T22:59:56.429Z,2.37
2019-03-24T23:02:25.159Z,2.87
2019-03-24T23:04:54.125Z,3.50
2019-03-24T23:07:23.150Z,3.33
2019-03-24T23:09:51.859Z,3.03
2019-03-24T23:12:21.125Z,2.33
2019-03-24T23:14:49.759Z,3.00
2019-03-24T23:17:18.425Z,2.40
2019-03-24T23:19:47.134Z,2.83
2019-03-24T23:22:20.151Z,2.00
2019-03-24T23:24:49.251Z,2.33
2019-03-24T23:27:20.841Z,2.63
2019-03-24T23:29:49.529Z,2.37
2019-03-24T23:32:21.563Z,3.03
2019-03-24T23:34:51.845Z,2.47
2019-03-24T23:37:26.277Z,3.10
2019-03-24T23:39:56.421Z,2.70
2019-03-24T23:42:25.267Z,2.40
2019-03-24T23:44:53.921Z,3.37
2019-03-24T23:47:22.804Z,2.90
2019-03-24T23:49:53.850Z,2.90
2019-03-24T23:52:22.509Z,2.60
2019-03-24T23:54:51.437Z,3.43
2019-03-24T23:57:20.295Z,2.83
2019-03-24T23:59:51.238Z,2.90
